Time;durP1;ratioP1;P1;durP2;ratioP2;P2;SDS_P1;SDS_P2;PMS_P1;PMS_P2;Temp;Humidity;BMP_temperature;BMP_pressure;BME280_temperature;BME280_humidity;BME280_pressure;Samples;Min_cycle;Max_cycle;Signal;HPM_P1;HPM_P2
2023/05/24 00:00:24;;;;;;;;;;;;;;;14.39;100.00;102269.09;5083038;28;1890;-82
2023/05/24 00:02:50;;;;;;;;;;;;;;;14.43;100.00;102267.88;5082706;28;854;-82
2023/05/24 00:05:17;;;;;;;;;;;;;;;14.45;100.00;102260.56;5085169;28;901;-82
2023/05/24 00:07:43;;;;;;;;;;;;;;;14.46;100.00;102258.75;5084432;28;814;-82
2023/05/24 00:10:10;;;;;;;;;;;;;;;14.49;100.00;102267.47;5084638;28;1559;-82
2023/05/24 00:12:36;;;;;;;;;;;;;;;14.50;100.00;102265.63;5084420;28;826;-82
2023/05/24 00:15:02;;;;;;;;;;;;;;;14.43;100.00;102262.47;5084621;28;811;-81
2023/05/24 00:17:28;;;;;;;;;;;;;;;14.40;100.00;102265.41;5083962;28;819;-82
2023/05/24 00:19:55;;;;;;;;;;;;;;;14.35;100.00;102262.19;5100005;28;1922;-82
2023/05/24 00:22:21;;;;;;;;;;;;;;;14.29;100.00;102260.81;5084674;28;822;-82
2023/05/24 00:24:47;;;;;;;;;;;;;;;14.27;100.00;102262.78;5084004;28;727;-82
2023/05/24 00:27:14;;;;;;;;;;;;;;;14.27;100.00;102257.38;5082827;28;814;-82
2023/05/24 00:29:40;;;;;;;;;;;;;;;14.33;100.00;102254.19;5083954;28;809;-82
2023/05/24 00:32:06;;;;;;;;;;;;;;;14.32;100.00;102255.19;5084254;28;1184;-82
2023/05/24 00:34:32;;;;;;;;;;;;;;;14.33;100.00;102250.63;5083873;28;842;-82
2023/05/24 00:36:59;;;;;;;;;;;;;;;14.35;100.00;102251.38;5083360;28;739;-82
2023/05/24 00:39:25;;;;;;;;;;;;;;;14.35;100.00;102245.97;5084110;28;838;-82
2023/05/24 00:41:51;;;;;;;;;;;;;;;14.38;100.00;102244.91;5083323;28;1881;-82
2023/05/24 00:44:17;;;;;;;;;;;;;;;14.38;100.00;102242.22;5083607;28;822;-82
2023/05/24 00:46:44;;;;;;;;;;;;;;;14.34;100.00;102238.88;5083302;28;768;-82
2023/05/24 00:49:10;;;;;;;;;;;;;;;14.38;100.00;102231.41;5082877;28;804;-82
2023/05/24 00:51:37;;;;;;;;;;;;;;;14.40;100.00;102241.13;5084004;28;1161;-82
2023/05/24 00:54:03;;;;;;;;;;;;;;;14.37;100.00;102241.34;5084248;28;853;-82
2023/05/24 00:56:30;;;;;;;;;;;;;;;14.35;100.00;102248.69;5082742;28;965;-81
2023/05/24 00:58:56;;;;;;;;;;;;;;;14.30;100.00;102238.25;5083601;28;893;-81
2023/05/24 01:01:29;;;;;;;;;;;;;;;14.35;100.00;102236.06;5084083;28;1906;-82
2023/05/24 01:03:56;;;;;;;;;;;;;;;14.35;100.00;102245.97;5083553;28;535;-82
2023/05/24 01:06:23;;;;;;;;;;;;;;;14.36;100.00;102242.34;5082860;28;834;-82
2023/05/24 01:09:05;;;;;;;;;;;;;;;14.24;100.00;102240.53;5082491;28;707;-82
2023/05/24 01:11:55;;;;;;;;;;;;;;;14.15;100.00;102238.50;5083017;28;1252;-82
2023/05/24 01:14:46;;;;;;;;;;;;;;;14.12;100.00;102238.72;5083357;28;579;-82
2023/05/24 01:17:19;;;;;;;;;;;;;;;14.15;100.00;102239.34;5082260;28;937;-82
2023/05/24 01:19:51;;;;;;;;;;;;;;;14.20;100.00;102233.63;5098992;28;846;-82
2023/05/24 01:22:28;;;;;;;;;;;;;;;14.16;100.00;102237.50;5082069;28;2010;-82
2023/05/24 01:25:06;;;;;;;;;;;;;;;14.13;100.00;102245.84;5082571;28;509;-82
2023/05/24 01:27:34;;;;;;;;;;;;;;;14.23;100.00;102241.50;5097386;28;821;-82
2023/05/24 01:30:03;;;;;;;;;;;;;;;14.24;100.00;102237.81;5097959;28;1314;-82
2023/05/24 01:32:29;;;;;;;;;;;;;;;14.24;100.00;102240.53;5080985;28;918;-82
2023/05/24 01:34:55;;;;;;;;;;;;;;;14.23;100.00;102242.34;5096995;28;864;-82
2023/05/24 01:37:21;;;;;;;;;;;;;;;14.18;100.00;102243.69;5081787;28;739;-82
2023/05/24 01:39:48;;;;;;;;;;;;;;;14.09;100.00;102239.81;5082401;28;842;-82
2023/05/24 01:42:46;;;;;;;;;;;;;;;14.04;100.00;102232.03;5097808;28;1890;-82
2023/05/24 01:45:33;;;;;;;;;;;;;;;14.00;100.00;102235.09;5065021;28;1314;-82
2023/05/24 01:48:02;;;;;;;;;;;;;;;14.01;100.00;102226.03;5080167;28;868;-82
2023/05/24 01:50:37;;;;;;;;;;;;;;;14.01;100.00;102231.41;5080547;28;1201;-82
2023/05/24 01:53:07;;;;;;;;;;;;;;;14.08;100.00;102227.31;5080792;28;861;-82
2023/05/24 01:55:36;;;;;;;;;;;;;;;14.14;100.00;102225.97;5082613;28;830;-82
2023/05/24 01:58:05;;;;;;;;;;;;;;;14.16;100.00;102224.91;5082031;28;882;-82
2023/05/24 02:00:33;;;;;;;;;;;;;;;14.18;100.00;102232.88;5097873;28;1886;-82
2023/05/24 02:03:01;;;;;;;;;;;;;;;14.19;100.00;102230.06;5082444;28;811;-82
2023/05/24 02:05:26;;;;;;;;;;;;;;;14.22;100.00;102227.16;5097595;28;917;-82
2023/05/24 02:07:52;;;;;;;;;;;;;;;14.25;100.00;102239.53;5082038;28;798;-82
2023/05/24 02:10:18;;;;;;;;;;;;;;;14.27;100.00;102240.31;5082088;28;1284;-82
2023/05/24 02:12:44;;;;;;;;;;;;;;;14.22;100.00;102234.38;5082348;28;889;-82
2023/05/24 02:15:13;;;;;;;;;;;;;;;14.22;100.00;102234.38;5081853;28;858;-82
2023/05/24 02:17:41;;;;;;;;;;;;;;;14.22;100.00;102227.16;5081834;28;803;-82
2023/05/24 02:20:08;;;;;;;;;;;;;;;14.26;100.00;102225.09;5082852;28;1275;-82
2023/05/24 02:22:34;;;;;;;;;;;;;;;14.23;100.00;102222.59;5082893;28;1866;-82
2023/05/24 02:25:00;;;;;;;;;;;;;;;14.23;100.00;102228.00;5081813;28;818;-82
2023/05/24 02:27:26;;;;;;;;;;;;;;;14.25;100.00;102224.19;5080221;28;1084;-82
2023/05/24 02:29:52;;;;;;;;;;;;;;;14.27;100.00;102224.13;5081424;28;1189;-82
2023/05/24 02:32:18;;;;;;;;;;;;;;;14.27;100.00;102232.22;5081284;28;950;-82
2023/05/24 02:34:44;;;;;;;;;;;;;;;14.25;100.00;102232.31;5081725;28;838;-82
2023/05/24 02:37:13;;;;;;;;;;;;;;;14.25;100.00;102223.34;5081528;28;672;-82
2023/05/24 02:39:40;;;;;;;;;;;;;;;14.18;100.00;102222.09;5081437;28;810;-82
2023/05/24 02:42:07;;;;;;;;;;;;;;;14.14;100.00;102223.28;5081947;28;1961;-82
2023/05/24 02:44:34;;;;;;;;;;;;;;;14.12;100.00;102219.84;5082262;28;670;-82
2023/05/24 02:46:59;;;;;;;;;;;;;;;14.16;100.00;102215.94;5083794;28;920;-82
2023/05/24 02:49:25;;;;;;;;;;;;;;;14.14;100.00;102212.47;5084113;28;842;-82
2023/05/24 02:51:51;;;;;;;;;;;;;;;14.10;100.00;102211.00;5101792;28;1303;-82
2023/05/24 02:54:18;;;;;;;;;;;;;;;14.09;100.00;102207.44;5085618;28;777;-82
2023/05/24 02:56:44;;;;;;;;;;;;;;;14.13;100.00;102214.31;5084788;28;850;-82
2023/05/24 02:59:10;;;;;;;;;;;;;;;14.06;100.00;102204.97;5084399;28;860;-82
2023/05/24 03:01:36;;;;;;;;;;;;;;;14.02;100.00;102211.56;5085773;28;1949;-82
2023/05/24 03:04:02;;;;;;;;;;;;;;;14.03;100.00;102206.03;5085599;28;929;-82
2023/05/24 03:06:28;;;;;;;;;;;;;;;14.10;100.00;102202.91;5085003;28;902;-82
2023/05/24 03:08:54;;;;;;;;;;;;;;;14.15;100.00;102206.09;5085726;28;818;-82
2023/05/24 03:11:22;;;;;;;;;;;;;;;14.14;100.00;102202.56;5086233;28;1212;-82
2023/05/24 03:13:48;;;;;;;;;;;;;;;14.13;100.00;102203.53;5084991;28;881;-82
2023/05/24 03:16:15;;;;;;;;;;;;;;;14.18;100.00;102189.72;5085675;28;751;-82
2023/05/24 03:18:41;;;;;;;;;;;;;;;14.14;100.00;102189.06;5085261;28;920;-82
2023/05/24 03:21:07;;;;;;;;;;;;;;;14.13;100.00;102199.97;5101101;28;1870;-82
2023/05/24 03:23:33;;;;;;;;;;;;;;;14.13;100.00;102197.28;5085411;28;819;-82
2023/05/24 03:25:59;;;;;;;;;;;;;;;14.13;100.00;102194.56;5085968;28;790;-82
2023/05/24 03:28:26;;;;;;;;;;;;;;;14.14;100.00;102199.84;5085068;28;845;-82
2023/05/24 03:30:52;;;;;;;;;;;;;;;14.20;100.00;102193.16;5085589;28;1216;-82
2023/05/24 03:33:18;;;;;;;;;;;;;;;14.23;100.00;102191.06;5100033;28;860;-82
2023/05/24 03:35:44;;;;;;;;;;;;;;;14.22;100.00;102192.06;5085844;28;923;-82
2023/05/24 03:38:10;;;;;;;;;;;;;;;14.25;100.00;102199.06;5084811;28;759;-82
2023/05/24 03:40:37;;;;;;;;;;;;;;;14.22;100.00;102202.84;5085661;28;1216;-82
2023/05/24 03:43:03;;;;;;;;;;;;;;;14.22;100.00;102197.44;5085367;28;1941;-82
2023/05/24 03:45:29;;;;;;;;;;;;;;;14.27;100.00;102195.28;5085241;28;825;-82
2023/05/24 03:47:55;;;;;;;;;;;;;;;14.30;100.00;102196.88;5084788;28;865;-82
2023/05/24 03:50:21;;;;;;;;;;;;;;;14.33;100.00;102200.22;5084745;28;1212;-82
2023/05/24 03:52:47;;;;;;;;;;;;;;;14.34;100.00;102191.13;5085196;28;819;-82
2023/05/24 03:55:13;;;;;;;;;;;;;;;14.35;100.00;102200.97;5085685;28;969;-82
2023/05/24 03:57:41;;;;;;;;;;;;;;;14.33;100.00;102202.06;5083759;28;701;-82
2023/05/24 04:00:08;;;;;;;;;;;;;;;14.31;100.00;102206.72;5085222;28;1205;-82
2023/05/24 04:02:36;;;;;;;;;;;;;;;14.26;100.00;102204.38;5085065;28;1870;-82
2023/05/24 04:05:04;;;;;;;;;;;;;;;14.26;100.00;102206.22;5085136;28;825;-82
2023/05/24 04:07:32;;;;;;;;;;;;;;;14.20;100.00;102202.09;5084643;28;810;-82
2023/05/24 04:09:58;;;;;;;;;;;;;;;14.20;100.00;102198.56;5082659;28;1264;-82
2023/05/24 04:12:24;;;;;;;;;;;;;;;14.18;100.00;102205.91;5083520;28;903;-82
2023/05/24 04:14:51;;;;;;;;;;;;;;;14.23;100.00;102209.97;5085193;28;1075;-82
2023/05/24 04:17:17;;;;;;;;;;;;;;;14.26;100.00;102207.06;5084333;28;834;-82
2023/05/24 04:19:43;;;;;;;;;;;;;;;14.21;100.00;102209.22;5085172;28;783;-82
2023/05/24 04:22:09;;;;;;;;;;;;;;;14.22;100.00;102202.84;5100108;28;1862;-82
2023/05/24 04:24:35;;;;;;;;;;;;;;;14.30;100.00;102205.00;5084410;28;739;-82
2023/05/24 04:27:01;;;;;;;;;;;;;;;14.32;100.00;102208.44;5082449;28;1143;-82
2023/05/24 04:29:27;;;;;;;;;;;;;;;14.35;100.00;102195.59;5082348;28;860;-82
2023/05/24 04:31:53;;;;;;;;;;;;;;;14.36;100.00;102196.44;5085245;28;1248;-82
2023/05/24 04:34:21;;;;;;;;;;;;;;;14.36;100.00;102209.94;5084256;28;917;-82
2023/05/24 04:36:48;;;;;;;;;;;;;;;14.43;100.00;102194.97;5083643;28;826;-82
2023/05/24 04:39:14;;;;;;;;;;;;;;;14.45;100.00;102198.44;5084732;28;905;-82
2023/05/24 04:41:40;;;;;;;;;;;;;;;14.47;100.00;102207.31;5084295;28;1890;-82
2023/05/24 04:44:06;;;;;;;;;;;;;;;14.57;100.00;102207.50;5082872;28;869;-82
2023/05/24 04:46:34;;;;;;;;;;;;;;;14.63;100.00;102207.00;5084193;28;818;-82
2023/05/24 04:49:01;;;;;;;;;;;;;;;14.69;100.00;102213.78;5084082;28;815;-82
2023/05/24 04:51:27;;;;;;;;;;;;;;;14.75;100.00;102214.22;5084775;28;1221;-81
2023/05/24 04:53:53;;;;;;;;;;;;;;;14.69;100.00;102219.19;5084538;28;909;-81
2023/05/24 04:56:19;;;;;;;;;;;;;;;14.63;100.00;102228.63;5083989;28;953;-81
2023/05/24 04:58:45;;;;;;;;;;;;;;;14.64;100.00;102227.63;5083117;28;668;-82
2023/05/24 05:01:11;;;;;;;;;;;;;;;14.62;100.00;102222.34;5084385;28;1887;-81
2023/05/24 05:03:37;;;;;;;;;;;;;;;14.64;100.00;102225.78;5084459;28;814;-81
2023/05/24 05:06:03;;;;;;;;;;;;;;;14.67;100.00;102232.81;5099882;28;841;-81
2023/05/24 05:08:29;;;;;;;;;;;;;;;14.72;100.00;102224.34;5082854;28;842;-81
2023/05/24 05:10:56;;;;;;;;;;;;;;;14.72;100.00;102224.34;5083016;28;1209;-81
2023/05/24 05:13:22;;;;;;;;;;;;;;;14.78;100.00;102223.91;5082798;28;833;-85
2023/05/24 05:15:48;;;;;;;;;;;;;;;14.81;100.00;102229.06;5080258;28;930;-83
2023/05/24 05:18:15;;;;;;;;;;;;;;;14.84;100.00;102232.38;5083099;28;917;-82
2023/05/24 05:20:41;;;;;;;;;;;;;;;14.88;100.00;102233.03;5082963;28;1342;-83
2023/05/24 05:23:07;;;;;;;;;;;;;;;14.88;100.00;102239.28;5099257;28;1948;-82
2023/05/24 05:25:34;;;;;;;;;;;;;;;14.97;100.00;102240.44;5083593;28;822;-83
2023/05/24 05:28:01;;;;;;;;;;;;;;;15.06;100.00;102236.16;5083146;28;807;-82
2023/05/24 05:30:26;;;;;;;;;;;;;;;15.11;100.00;102237.50;5082617;28;1176;-81
2023/05/24 05:32:52;;;;;;;;;;;;;;;15.12;100.00;102233.81;5083169;28;807;-81
2023/05/24 05:35:18;;;;;;;;;;;;;;;15.09;100.00;102235.91;5083414;28;743;-81
2023/05/24 05:37:44;;;;;;;;;;;;;;;15.10;100.00;102238.50;5083699;28;815;-81
2023/05/24 05:40:11;;;;;;;;;;;;;;;15.18;100.00;102238.75;5083945;28;1212;-81
2023/05/24 05:42:37;;;;;;;;;;;;;;;15.20;100.00;102249.44;5083439;28;1929;-81
2023/05/24 05:45:03;;;;;;;;;;;;;;;15.23;100.00;102249.19;5081493;28;754;-82
2023/05/24 05:47:29;;;;;;;;;;;;;;;15.27;100.00;102236.34;5081776;28;747;-82
2023/05/24 05:49:55;;;;;;;;;;;;;;;15.28;100.00;102235.34;5082541;28;1255;-82
2023/05/24 05:52:21;;;;;;;;;;;;;;;15.26;100.00;102231.91;5083898;28;802;-82
2023/05/24 05:54:47;;;;;;;;;;;;;;;15.21;100.00;102232.25;5082882;28;900;-82
2023/05/24 05:57:15;;;;;;;;;;;;;;;15.27;100.00;102233.63;5079519;28;870;-80
2023/05/24 05:59:41;;;;;;;;;;;;;;;15.31;100.00;102232.38;5084555;28;1116;-81
2023/05/24 06:02:07;;;;;;;;;;;;;;;15.34;100.00;102237.53;5081515;28;1898;-83
2023/05/24 06:04:33;;;;;;;;;;;;;;;15.29;100.00;102240.63;5082705;28;850;-82
2023/05/24 06:06:59;;;;;;;;;;;;;;;15.35;100.00;102240.16;5081817;28;799;-82
2023/05/24 06:09:25;;;;;;;;;;;;;;;15.37;100.00;102246.31;5082649;28;751;-82
2023/05/24 06:11:51;;;;;;;;;;;;;;;15.45;100.00;102243.00;5082568;28;1252;-81
2023/05/24 06:14:18;;;;;;;;;;;;;;;15.43;100.00;102244.94;5082185;28;857;-82
2023/05/24 06:16:44;;;;;;;;;;;;;;;15.43;100.00;102253.06;5082019;28;885;-82
2023/05/24 06:19:11;;;;;;;;;;;;;;;15.40;100.00;102251.47;5082299;28;913;-82
2023/05/24 06:21:39;;;;;;;;;;;;;;;15.42;100.00;102254.03;5082311;28;1918;-82
2023/05/24 06:24:08;;;;;;;;;;;;;;;15.42;100.00;102254.03;5081932;28;794;-82
2023/05/24 06:26:36;;;;;;;;;;;;;;;15.45;100.00;102257.38;5082642;28;798;-81
2023/05/24 06:29:02;;;;;;;;;;;;;;;15.50;100.00;102257.00;5083306;28;869;-81
2023/05/24 06:31:28;;;;;;;;;;;;;;;15.53;100.00;102264.88;5080636;28;1184;-82
2023/05/24 06:33:54;;;;;;;;;;;;;;;15.56;100.00;102259.25;5082781;28;842;-82
2023/05/24 06:36:20;;;;;;;;;;;;;;;15.64;100.00;102264.94;5080923;28;878;-82
2023/05/24 06:38:45;;;;;;;;;;;;;;;15.72;100.00;102256.19;5080426;28;959;-81
2023/05/24 06:41:12;;;;;;;;;;;;;;;15.69;100.00;102259.16;5083101;28;1181;-82
2023/05/24 06:43:39;;;;;;;;;;;;;;;15.64;100.00;102258.66;5083363;28;1945;-82
2023/05/24 06:46:05;;;;;;;;;;;;;;;15.61;100.00;102254.34;5083496;28;842;-82
2023/05/24 06:48:31;;;;;;;;;;;;;;;15.63;100.00;102252.41;5082046;28;814;-82
2023/05/24 06:50:57;;;;;;;;;;;;;;;15.74;100.00;102248.84;5081359;28;1212;-82
2023/05/24 06:53:23;;;;;;;;;;;;;;;15.86;100.00;102246.97;5082647;28;747;-81
2023/05/24 06:55:49;;;;;;;;;;;;;;;15.89;100.00;102249.44;5081110;28;839;-82
2023/05/24 06:58:16;;;;;;;;;;;;;;;15.91;100.00;102250.16;5082053;28;806;-82
2023/05/24 07:00:42;;;;;;;;;;;;;;;15.87;100.00;102251.41;5081468;28;1240;-81
2023/05/24 07:03:08;;;;;;;;;;;;;;;15.92;100.00;102260.00;5083460;28;1929;-81
2023/05/24 07:05:34;;;;;;;;;;;;;;;15.97;100.00;102264.06;5082796;28;875;-82
2023/05/24 07:08:00;;;;;;;;;;;;;;;16.04;100.00;102264.44;5082186;28;857;-81
2023/05/24 07:10:26;;;;;;;;;;;;;;;16.08;100.00;102273.16;5082404;28;1319;-81
2023/05/24 07:12:52;;;;;;;;;;;;;;;16.04;100.00;102275.28;5081793;28;897;-82
2023/05/24 07:15:18;;;;;;;;;;;;;;;16.01;100.00;102284.47;5082654;28;905;-80
2023/05/24 07:17:44;;;;;;;;;;;;;;;16.03;100.00;102284.38;5082064;28;932;-82
2023/05/24 07:20:12;;;;;;;;;;;;;;;16.06;100.00;102289.53;5081679;28;1197;-81
2023/05/24 07:22:39;;;;;;;;;;;;;;;16.11;100.00;102291.84;5082647;28;1925;-81
2023/05/24 07:25:06;;;;;;;;;;;;;;;16.26;100.00;102290.63;5082556;28;880;-81
2023/05/24 07:27:32;;;;;;;;;;;;;;;16.29;100.00;102288.53;5082118;28;672;-81
2023/05/24 07:29:57;;;;;;;;;;;;;;;16.20;100.00;102294.69;5081933;28;1240;-81
2023/05/24 07:32:23;;;;;;;;;;;;;;;16.16;100.00;102295.06;5083893;28;828;-81
2023/05/24 07:34:50;;;;;;;;;;;;;;;16.22;100.00;102294.56;5086356;28;834;-81
2023/05/24 07:37:17;;;;;;;;;;;;;;;16.29;100.00;102291.22;5086575;28;684;-81
2023/05/24 07:39:43;;;;;;;;;;;;;;;16.31;100.00;102286.53;5085618;28;904;-81
2023/05/24 07:42:09;;;;;;;;;;;;;;;16.29;100.00;102291.22;5087167;28;1866;-81
2023/05/24 07:44:35;;;;;;;;;;;;;;;16.24;100.00;102288.06;5086709;28;929;-81
2023/05/24 07:47:01;;;;;;;;;;;;;;;16.21;100.00;102291.00;5085767;28;904;-81
2023/05/24 07:49:27;;;;;;;;;;;;;;;16.21;100.00;102300.97;5087146;28;945;-82
2023/05/24 07:51:57;;;;;;;;;;;;;;;16.23;100.00;102296.31;5085986;28;1260;-81
2023/05/24 07:54:23;;;;;;;;;;;;;;;16.30;100.00;102302.91;5085945;28;735;-81
2023/05/24 07:56:49;;;;;;;;;;;;;;;16.31;100.00;102315.47;5086850;28;973;-81
2023/05/24 07:59:15;;;;;;;;;;;;;;;15.94;100.00;102299.50;5086781;28;842;-81
2023/05/24 08:01:41;;;;;;;;;;;;;;;16.02;100.00;102305.16;5087095;28;1189;-81
2023/05/24 08:04:08;;;;;;;;;;;;;;;16.19;100.00;102300.22;5085217;28;1941;-82
2023/05/24 08:06:34;;;;;;;;;;;;;;;16.25;100.00;102295.19;5085198;28;809;-81
2023/05/24 08:09:03;;;;;;;;;;;;;;;16.28;100.00;102296.78;5085956;28;799;-82
2023/05/24 08:11:29;;;;;;;;;;;;;;;16.35;100.00;102298.88;5086512;28;1173;-82
2023/05/24 08:13:55;;;;;;;;;;;;;;;16.42;100.00;102303.75;5086438;28;805;-82
2023/05/24 08:16:21;;;;;;;;;;;;;;;16.39;100.00;102307.59;5086033;28;819;-82
2023/05/24 08:18:47;;;;;;;;;;;;;;;16.40;100.00;102311.16;5085610;28;671;-81
2023/05/24 08:21:14;;;;;;;;;;;;;;;16.44;100.00;102307.22;5101063;28;1212;-81
2023/05/24 08:23:40;;;;;;;;;;;;;;;16.49;100.00;102313.09;5086196;28;1870;-81
2023/05/24 08:26:06;;;;;;;;;;;;;;;16.53;100.00;102306.47;5085706;28;803;-81
2023/05/24 08:28:32;;;;;;;;;;;;;;;16.60;100.00;102302.25;5084772;28;846;-81
2023/05/24 08:30:58;;;;;;;;;;;;;;;16.67;100.00;102299.91;5084670;28;1216;-82
2023/05/24 08:33:24;;;;;;;;;;;;;;;16.73;100.00;102297.59;5084676;28;834;-82
2023/05/24 08:35:50;;;;;;;;;;;;;;;16.83;100.00;102303.09;5083146;28;851;-81
2023/05/24 08:38:17;;;;;;;;;;;;;;;16.87;100.00;102305.41;5082617;28;795;-81
2023/05/24 08:40:43;;;;;;;;;;;;;;;16.87;100.00;102315.38;5082587;28;1181;-81
2023/05/24 08:43:12;;;;;;;;;;;;;;;16.86;100.00;102313.66;5082854;28;1916;-80
2023/05/24 08:45:38;;;;;;;;;;;;;;;16.98;100.00;102314.47;5083168;28;830;-81
2023/05/24 08:48:05;;;;;;;;;;;;;;;17.02;100.00;102324.09;5082723;28;869;-81
2023/05/24 08:50:32;;;;;;;;;;;;;;;17.03;100.00;102336.66;5082960;28;1218;-81
2023/05/24 08:53:00;;;;;;;;;;;;;;;17.01;100.00;102325.94;5083098;28;807;-81
2023/05/24 08:55:27;;;;;;;;;;;;;;;16.97;100.00;102337.16;5082605;28;1004;-81
2023/05/24 08:57:55;;;;;;;;;;;;;;;16.96;100.00;102330.03;5082248;28;609;-81
2023/05/24 09:00:21;;;;;;;;;;;;;;;16.92;100.00;102327.56;5086037;28;1193;-81
2023/05/24 09:02:48;;;;;;;;;;;;;;;16.95;100.00;102331.00;5087394;28;1926;-81
2023/05/24 09:05:15;;;;;;;;;;;;;;;16.96;100.00;102336.31;5085326;28;939;-81
2023/05/24 09:07:44;;;;;;;;;;;;;;;16.96;100.00;102341.72;5086064;28;1131;-81
2023/05/24 09:10:10;;;;;;;;;;;;;;;16.97;100.00;102338.03;5102619;28;1221;-81
2023/05/24 09:12:38;;;;;;;;;;;;;;;16.96;100.00;102349.00;5086834;28;798;-85
2023/05/24 09:15:06;;;;;;;;;;;;;;;17.01;100.00;102346.75;5087919;28;795;-85
2023/05/24 09:17:37;;;;;;;;;;;;;;;17.08;100.00;102345.25;5085850;28;743;-82
2023/05/24 09:20:05;;;;;;;;;;;;;;;17.09;100.00;102342.41;5085720;28;1200;-83
2023/05/24 09:22:33;;;;;;;;;;;;;;;17.05;100.00;102342.81;5085632;28;1882;-82
2023/05/24 09:25:00;;;;;;;;;;;;;;;17.02;100.00;102340.38;5086102;28;779;-82
2023/05/24 09:27:26;;;;;;;;;;;;;;;17.10;100.00;102343.25;5100814;28;819;-82
2023/05/24 09:29:54;;;;;;;;;;;;;;;17.19;100.00;102342.50;5083263;28;1185;-83
2023/05/24 09:32:24;;;;;;;;;;;;;;;17.23;100.00;102345.81;5085397;28;814;-83
2023/05/24 09:34:52;;;;;;;;;;;;;;;17.25;100.00;102351.97;5086463;28;659;-83
2023/05/24 09:37:22;;;;;;;;;;;;;;;17.28;100.00;102359.84;5101915;28;834;-83
2023/05/24 09:39:51;;;;;;;;;;;;;;;17.23;100.00;102357.53;5086738;28;862;-82
2023/05/24 09:42:25;;;;;;;;;;;;;;;17.20;100.00;102353.19;5086567;28;842;-83
2023/05/24 09:44:59;;;;;;;;;;;;;;;17.19;100.00;102354.19;5084251;28;881;-82
2023/05/24 09:47:30;;;;;;;;;;;;;;;17.19;100.00;102347.91;5084252;28;891;-82
2023/05/24 09:49:56;;;;;;;;;;;;;;;17.19;100.00;102354.19;5085813;28;1213;-82
2023/05/24 09:52:22;;;;;;;;;;;;;;;17.25;100.00;102352.81;5084942;28;920;-82
2023/05/24 09:54:48;;;;;;;;;;;;;;;17.30;100.00;102352.41;5085641;28;794;-82
2023/05/24 09:57:16;;;;;;;;;;;;;;;17.33;100.00;102352.19;5085194;28;972;-82
2023/05/24 09:59:43;;;;;;;;;;;;;;;17.25;100.00;102350.13;5085500;28;818;-82
2023/05/24 10:02:10;;;;;;;;;;;;;;;17.22;100.00;102354.94;5085779;28;1187;-82
2023/05/24 10:04:39;;;;;;;;;;;;;;;17.25;100.00;102344.69;5085909;28;1938;-82
2023/05/24 10:07:11;;;;;;;;;;;;;;;17.34;100.00;102348.47;5099863;28;804;-82
2023/05/24 10:09:36;;;;;;;;;;;;;;;17.47;100.00;102343.72;5084729;28;807;-82
2023/05/24 10:12:05;;;;;;;;;;;;;;;17.57;100.00;102349.19;5086981;28;1177;-82
2023/05/24 10:14:36;;;;;;;;;;;;;;;17.68;100.00;102347.28;5102055;28;799;-82
2023/05/24 10:17:04;;;;;;;;;;;;;;;17.74;100.00;102352.22;5085637;28;613;-82
2023/05/24 10:19:31;;;;;;;;;;;;;;;17.77;100.00;102351.94;5100637;28;778;-82
2023/05/24 10:21:58;;;;;;;;;;;;;;;17.76;100.00;102362.94;5101379;28;1289;-83
2023/05/24 10:24:31;;;;;;;;;;;;;;;17.71;100.00;102359.78;5102290;28;1927;-83
2023/05/24 10:26:59;;;;;;;;;;;;;;;17.74;100.00;102362.22;5084091;28;800;-83
2023/05/24 10:30:16;;;;;;;;;;;;;;;17.81;100.00;102363.41;5100727;28;775;-82
2023/05/24 10:32:46;;;;;;;;;;;;;;;18.02;100.00;102360.66;5052186;28;1285;-82
2023/05/24 10:35:13;;;;;;;;;;;;;;;18.21;100.00;102368.91;5086375;28;880;-83
2023/05/24 10:37:41;;;;;;;;;;;;;;;18.24;99.73;102370.47;5085841;28;810;-82
2023/05/24 10:40:19;;;;;;;;;;;;;;;18.22;100.00;102367.91;5101644;28;1264;-82
2023/05/24 10:42:46;;;;;;;;;;;;;;;18.28;100.00;102369.19;5083803;28;1898;-82
2023/05/24 10:45:34;;;;;;;;;;;;;;;18.31;100.00;102364.38;5100847;28;903;-82
2023/05/24 10:48:07;;;;;;;;;;;;;;;18.32;98.09;102366.09;5083531;28;842;-82
2023/05/24 10:50:33;;;;;;;;;;;;;;;18.33;100.00;102364.25;5101440;28;1184;-82
2023/05/24 10:53:15;;;;;;;;;;;;;;;18.33;100.00;102356.94;5101108;28;962;-83
2023/05/24 10:55:51;;;;;;;;;;;;;;;18.47;100.00;102360.28;5101816;28;842;-82
2023/05/24 10:58:18;;;;;;;;;;;;;;;18.61;100.00;102357.19;5086539;28;923;-83
2023/05/24 11:00:44;;;;;;;;;;;;;;;18.73;99.78;102357.97;5089243;28;1205;-82
2023/05/24 11:03:12;;;;;;;;;;;;;;;18.70;95.40;102360.97;5089994;28;1874;-81
2023/05/24 11:05:51;;;;;;;;;;;;;;;18.60;98.70;102359.03;5106360;28;916;-82
2023/05/24 11:08:27;;;;;;;;;;;;;;;18.64;98.65;102362.34;5092612;28;686;-82
2023/05/24 11:11:06;;;;;;;;;;;;;;;18.66;95.98;102357.63;5094147;28;1323;-82
2023/05/24 11:13:32;;;;;;;;;;;;;;;18.59;100.00;102356.47;5109726;28;773;-82
2023/05/24 11:15:59;;;;;;;;;;;;;;;18.50;96.44;102358.16;5106099;28;913;-82
2023/05/24 11:18:25;;;;;;;;;;;;;;;18.42;98.80;102359.84;5090220;28;790;-83
2023/05/24 11:20:51;;;;;;;;;;;;;;;18.31;99.21;102361.66;5105152;28;1295;-83
2023/05/24 11:23:18;;;;;;;;;;;;;;;18.34;100.00;102363.25;5088232;28;1961;-82
2023/05/24 11:25:46;;;;;;;;;;;;;;;18.36;95.81;102361.22;5087455;28;882;-81
2023/05/24 11:28:12;;;;;;;;;;;;;;;18.37;93.26;102364.81;5087469;28;825;-82
2023/05/24 11:30:39;;;;;;;;;;;;;;;18.45;95.07;102365.84;5087830;28;1279;-82
2023/05/24 11:33:19;;;;;;;;;;;;;;;18.72;89.70;102369.84;5087798;28;785;-82
2023/05/24 11:35:46;;;;;;;;;;;;;;;19.16;87.42;102363.00;5103790;28;1148;-82
2023/05/24 11:38:14;;;;;;;;;;;;;;;19.49;86.06;102364.44;5088555;28;811;-82
2023/05/24 11:40:48;;;;;;;;;;;;;;;19.76;79.84;102358.25;5104854;28;1228;-82
2023/05/24 11:43:16;;;;;;;;;;;;;;;19.90;80.04;102357.81;5104120;28;1954;-82
2023/05/24 11:45:48;;;;;;;;;;;;;;;19.77;76.27;102360.00;5088569;28;873;-82
2023/05/24 11:48:15;;;;;;;;;;;;;;;19.56;74.84;102356.56;5104574;28;833;-82
2023/05/24 11:50:42;;;;;;;;;;;;;;;19.40;77.81;102359.88;5086481;28;1224;-82
2023/05/24 11:53:13;;;;;;;;;;;;;;;19.24;76.12;102362.31;5104934;28;957;-82
2023/05/24 11:55:40;;;;;;;;;;;;;;;19.09;80.87;102362.75;5105097;28;970;-82
2023/05/24 11:58:18;;;;;;;;;;;;;;;19.07;84.66;102367.44;5104853;28;832;-82
2023/05/24 12:00:44;;;;;;;;;;;;;;;19.12;79.86;102365.16;5105614;28;1331;-83
2023/05/24 12:03:10;;;;;;;;;;;;;;;19.09;82.49;102370.91;5088500;28;1866;-82
2023/05/24 12:05:39;;;;;;;;;;;;;;;19.37;83.75;102368.31;5088295;28;861;-82
2023/05/24 12:08:17;;;;;;;;;;;;;;;19.55;80.03;102360.28;5086544;28;805;-82
2023/05/24 12:10:43;;;;;;;;;;;;;;;19.49;77.70;102373.47;5103281;28;1336;-82
2023/05/24 12:13:22;;;;;;;;;;;;;;;19.29;75.52;102371.78;5088586;28;810;-83
2023/05/24 12:15:54;;;;;;;;;;;;;;;19.20;77.86;102361.75;5089638;28;798;-83
2023/05/24 12:18:22;;;;;;;;;;;;;;;19.25;79.29;102370.31;5103048;28;945;-82
2023/05/24 12:20:48;;;;;;;;;;;;;;;19.31;77.19;102374.34;5104045;28;1276;-82
2023/05/24 12:23:15;;;;;;;;;;;;;;;19.21;76.39;102382.50;5089414;28;1910;-82
2023/05/24 12:25:42;;;;;;;;;;;;;;;19.13;76.71;102382.34;5103186;28;811;-82
2023/05/24 12:28:09;;;;;;;;;;;;;;;18.97;80.22;102387.47;5086379;28;860;-82
2023/05/24 12:30:36;;;;;;;;;;;;;;;18.96;83.64;102388.47;5088745;28;1267;-82
2023/05/24 12:33:02;;;;;;;;;;;;;;;18.98;81.61;102381.06;5103828;28;932;-82
2023/05/24 12:35:28;;;;;;;;;;;;;;;19.01;78.57;102387.06;5088243;28;775;-82
2023/05/24 12:37:58;;;;;;;;;;;;;;;19.02;83.03;102383.34;5103669;28;832;-82
2023/05/24 12:40:25;;;;;;;;;;;;;;;19.02;82.58;102390.63;5087227;28;1204;-82
2023/05/24 12:42:59;;;;;;;;;;;;;;;19.00;83.79;102379.91;5094102;28;889;-82
2023/05/24 12:45:26;;;;;;;;;;;;;;;18.85;81.05;102389.44;5104845;28;1965;-82
2023/05/24 12:47:56;;;;;;;;;;;;;;;18.80;80.01;102389.88;5088475;28;896;-82